createdAt,value
2023-04-10T00:00:08.843Z,101452.66
2023-04-10T00:02:39.727Z,101449.97
2023-04-10T00:05:07.632Z,101455.97
2023-04-10T00:07:34.724Z,101460.22
2023-04-10T00:10:02.473Z,101454.00
2023-04-10T00:12:29.484Z,101449.56
2023-04-10T00:14:56.273Z,101455.69
2023-04-10T00:17:25.312Z,101449.47
2023-04-10T00:19:51.978Z,101449.47
2023-04-10T00:22:18.460Z,101444.03
2023-04-10T00:24:45.791Z,101449.19
2023-04-10T00:27:12.636Z,101443.81
2023-04-10T00:29:40.641Z,101452.44
2023-04-10T00:32:07.286Z,101448.78
2023-04-10T00:34:35.444Z,101455.72
2023-04-10T00:37:03.371Z,101449.44
2023-04-10T00:39:29.956Z,101452.00
2023-04-10T00:41:57.976Z,101451.88
2023-04-10T00:44:24.501Z,101447.31
2023-04-10T00:46:51.808Z,101448.91
2023-04-10T00:49:18.729Z,101448.78
2023-04-10T00:51:45.415Z,101451.25
2023-04-10T00:54:12.672Z,101447.59
2023-04-10T00:56:41.029Z,101447.47
2023-04-10T00:59:07.934Z,101450.78
2023-04-10T01:01:34.507Z,101442.72
2023-04-10T01:04:01.395Z,101443.47
2023-04-10T01:06:54.439Z,101447.69
2023-04-10T01:09:41.884Z,101448.31
2023-04-10T01:12:16.115Z,101448.19
2023-04-10T01:14:51.557Z,101443.63
2023-04-10T01:17:29.000Z,101440.78
2023-04-10T01:20:13.198Z,101450.31
2023-04-10T01:23:09.656Z,101439.63
2023-04-10T01:25:57.081Z,101435.00
2023-04-10T01:28:38.971Z,101434.88
2023-04-10T01:31:08.776Z,101437.44
2023-04-10T01:33:56.734Z,101437.28
2023-04-10T01:36:30.318Z,101441.50
2023-04-10T01:38:58.554Z,101435.22
2023-04-10T01:41:26.750Z,101427.22
2023-04-10T01:43:56.185Z,101432.41
2023-04-10T01:46:25.102Z,101436.66
2023-04-10T01:48:56.341Z,101433.91
2023-04-10T01:51:23.679Z,101439.16
2023-04-10T01:53:52.380Z,101441.69
2023-04-10T01:56:23.829Z,101438.19
2023-04-10T01:58:51.870Z,101446.00
2023-04-10T02:01:28.872Z,101445.09
2023-04-10T02:03:57.267Z,101437.97
2023-04-10T02:06:37.734Z,101436.13
2023-04-10T02:09:11.082Z,101440.38
2023-04-10T02:12:01.539Z,101432.28
2023-04-10T02:14:32.861Z,101431.25
2023-04-10T02:17:02.603Z,101426.78
2023-04-10T02:19:31.985Z,101426.59
2023-04-10T02:21:59.152Z,101427.44
2023-04-10T02:24:26.250Z,101425.56
2023-04-10T02:26:53.904Z,101428.06
2023-04-10T02:29:20.782Z,101430.50
2023-04-10T02:31:47.445Z,101422.63
2023-04-10T02:34:14.873Z,101428.66
2023-04-10T02:36:41.797Z,101430.25
2023-04-10T02:39:10.670Z,101433.59
2023-04-10T02:41:46.651Z,101429.13
2023-04-10T02:44:14.277Z,101421.09
2023-04-10T02:46:42.002Z,101419.31
2023-04-10T02:49:08.890Z,101423.50
2023-04-10T02:51:36.411Z,101417.22
2023-04-10T02:54:05.382Z,101416.25
2023-04-10T02:56:36.733Z,101407.41
2023-04-10T02:59:03.978Z,101399.53
2023-04-10T03:01:31.189Z,101397.81
2023-04-10T03:03:58.813Z,101403.88
2023-04-10T03:06:34.607Z,101389.88
2023-04-10T03:09:01.865Z,101401.19
2023-04-10T03:11:28.636Z,101393.25
2023-04-10T03:14:00.048Z,101394.16
2023-04-10T03:16:26.721Z,101385.44
2023-04-10T03:18:53.843Z,101379.31
2023-04-10T03:21:20.953Z,101377.53
2023-04-10T03:23:48.714Z,101383.56
2023-04-10T03:26:20.834Z,101391.31
2023-04-10T03:28:47.923Z,101381.66
2023-04-10T03:31:14.853Z,101381.66
2023-04-10T03:33:44.253Z,101372.88
2023-04-10T03:36:11.830Z,101373.78
2023-04-10T03:38:38.442Z,101372.94
2023-04-10T03:41:07.100Z,101366.00
2023-04-10T03:43:35.145Z,101372.22
2023-04-10T03:46:03.518Z,101366.97
2023-04-10T03:48:32.305Z,101364.34
2023-04-10T03:50:59.136Z,101358.25
2023-04-10T03:53:25.797Z,101363.50
2023-04-10T03:55:53.985Z,101358.25
2023-04-10T03:58:22.164Z,101363.50
2023-04-10T04:00:49.171Z,101360.88
2023-04-10T04:03:34.474Z,101367.03
2023-04-10T04:06:23.981Z,101367.94
2023-04-10T04:09:13.552Z,101361.78
2023-04-10T04:11:59.230Z,101359.97
2023-04-10T04:14:53.174Z,101361.78
2023-04-10T04:17:48.297Z,101365.31
2023-04-10T04:20:35.617Z,101366.13
2023-04-10T04:23:41.018Z,101360.81
2023-04-10T04:26:14.061Z,101363.44
2023-04-10T04:29:12.822Z,101371.22
2023-04-10T04:31:49.117Z,101373.00
2023-04-10T04:34:35.600Z,101371.22
2023-04-10T04:37:09.417Z,101371.22
2023-04-10T04:39:57.024Z,101369.53
2023-04-10T04:42:23.547Z,101370.41
2023-04-10T04:45:21.787Z,101369.59
2023-04-10T04:48:10.842Z,101366.97
2023-04-10T04:51:03.986Z,101366.13
2023-04-10T04:53:48.305Z,101357.47
2023-04-10T04:56:43.933Z,101358.34
2023-04-10T04:59:22.987Z,101358.34
2023-04-10T05:02:14.277Z,101358.44
2023-04-10T05:04:47.118Z,101349.78
2023-04-10T05:07:40.671Z,101356.97
2023-04-10T05:10:22.791Z,101357.19
2023-04-10T05:13:08.515Z,101357.34
2023-04-10T05:15:58.204Z,101358.47
2023-04-10T05:18:46.331Z,101350.78
2023-04-10T05:21:24.058Z,101350.19
2023-04-10T05:24:09.747Z,101351.38
2023-04-10T05:26:42.499Z,101350.75
2023-04-10T05:29:41.174Z,101351.19
2023-04-10T05:32:14.828Z,101354.16
2023-04-10T05:35:07.802Z,101358.91
2023-04-10T05:37:58.169Z,101361.03
2023-04-10T05:40:36.992Z,101350.88
2023-04-10T05:43:22.106Z,101351.31
2023-04-10T05:46:09.529Z,101354.28
2023-04-10T05:48:56.736Z,101359.03
2023-04-10T05:51:53.584Z,101362.97
2023-04-10T05:54:47.816Z,101365.13
2023-04-10T05:57:32.862Z,101359.38
2023-04-10T06:00:18.304Z,101359.00
2023-04-10T06:03:20.307Z,101362.06
2023-04-10T06:05:54.024Z,101367.69
2023-04-10T06:08:20.720Z,101362.75
2023-04-10T06:10:47.204Z,101361.41
2023-04-10T06:13:15.259Z,101365.28
2023-04-10T06:15:41.886Z,101359.50
2023-04-10T06:18:09.455Z,101370.50
2023-04-10T06:20:37.256Z,101372.63
2023-04-10T06:23:03.726Z,101363.44
2023-04-10T06:25:30.989Z,101373.50
2023-04-10T06:27:59.633Z,101366.03
2023-04-10T06:30:26.336Z,101364.72
2023-04-10T06:32:55.243Z,101360.75
2023-04-10T06:35:22.264Z,101357.59
2023-04-10T06:37:48.859Z,101358.97
2023-04-10T06:40:16.235Z,101359.41
2023-04-10T06:42:43.248Z,101351.97
2023-04-10T06:45:17.681Z,101357.78
2023-04-10T06:47:44.177Z,101354.59
2023-04-10T06:50:10.827Z,101341.78
2023-04-10T06:52:37.311Z,101346.59
2023-04-10T06:55:04.151Z,101343.50
2023-04-10T06:57:31.193Z,101340.34
2023-04-10T06:59:58.835Z,101331.00
2023-04-10T07:02:25.425Z,101332.25
2023-04-10T07:04:53.003Z,101332.50
2023-04-10T07:07:19.554Z,101326.69
2023-04-10T07:09:46.480Z,101326.88
2023-04-10T07:12:13.014Z,101325.44
2023-04-10T07:14:39.452Z,101321.31
2023-04-10T07:17:06.271Z,101314.53
2023-04-10T07:19:32.861Z,101316.41
2023-04-10T07:22:00.763Z,101314.84
2023-04-10T07:24:27.993Z,101307.13
2023-04-10T07:26:54.554Z,101312.63
2023-04-10T07:29:21.309Z,101311.16
2023-04-10T07:31:49.683Z,101307.06
2023-04-10T07:34:16.256Z,101305.59
2023-04-10T07:36:43.942Z,101305.97
2023-04-10T07:39:12.086Z,101304.38
2023-04-10T07:41:38.621Z,101306.28
2023-04-10T07:44:05.431Z,101297.63
2023-04-10T07:46:33.518Z,101303.91
2023-04-10T07:49:00.024Z,101293.44
2023-04-10T07:51:27.491Z,101293.53
2023-04-10T07:53:54.017Z,101295.44
2023-04-10T07:56:21.648Z,101295.53
2023-04-10T07:58:51.498Z,101302.63
2023-04-10T08:01:19.474Z,101292.16
2023-04-10T08:03:47.598Z,101291.31
2023-04-10T08:06:16.823Z,101281.69
2023-04-10T08:08:44.532Z,101276.44
2023-04-10T08:11:31.797Z,101278.28
2023-04-10T08:14:02.777Z,101270.44
2023-04-10T08:16:33.723Z,101271.38
2023-04-10T08:19:03.391Z,101268.81
2023-04-10T08:21:32.268Z,101274.19
2023-04-10T08:24:00.562Z,101262.84
2023-04-10T08:26:28.449Z,101267.34
2023-04-10T08:28:57.252Z,101265.75
2023-04-10T08:31:25.679Z,101258.88
2023-04-10T08:33:52.371Z,101261.72
2023-04-10T08:36:20.357Z,101255.72
2023-04-10T08:38:47.815Z,101255.00
2023-04-10T08:41:16.404Z,101255.19
2023-04-10T08:43:43.884Z,101256.22
2023-04-10T08:46:12.670Z,101251.91
2023-04-10T08:48:46.607Z,101252.84
2023-04-10T08:51:26.796Z,101246.75
2023-04-10T08:54:02.484Z,101252.22
2023-04-10T08:56:32.613Z,101247.91
2023-04-10T08:59:01.402Z,101242.69
2023-04-10T09:01:28.125Z,101235.72
2023-04-10T09:03:55.227Z,101231.44
2023-04-10T09:06:21.896Z,101233.28
2023-04-10T09:08:50.681Z,101226.31
2023-04-10T09:11:17.256Z,101227.34
2023-04-10T09:13:47.281Z,101223.91
2023-04-10T09:16:13.967Z,101218.69
2023-04-10T09:18:48.309Z,101218.75
2023-04-10T09:21:19.634Z,101216.19
2023-04-10T09:23:47.911Z,101204.75
2023-04-10T09:26:32.237Z,101206.66
2023-04-10T09:29:07.874Z,101199.69
2023-04-10T09:31:36.864Z,101195.31
2023-04-10T09:34:15.112Z,101192.69
2023-04-10T09:36:43.949Z,101177.69
2023-04-10T09:39:11.884Z,101176.00
2023-04-10T09:41:57.857Z,101174.28
2023-04-10T09:44:36.009Z,101173.41
2023-04-10T09:47:14.511Z,101175.28
2023-04-10T09:49:49.505Z,101170.00
2023-04-10T09:52:42.139Z,101172.72
2023-04-10T09:55:17.018Z,101159.47
2023-04-10T09:57:46.016Z,101164.84
2023-04-10T10:00:14.259Z,101151.56
2023-04-10T10:02:41.735Z,101148.97
2023-04-10T10:05:09.111Z,101142.84
2023-04-10T10:07:37.134Z,101136.66
2023-04-10T10:10:03.932Z,101133.16
2023-04-10T10:12:51.701Z,101135.03
2023-04-10T10:15:43.758Z,101124.44
2023-04-10T10:18:34.805Z,101113.88
2023-04-10T10:21:02.624Z,101113.97
2023-04-10T10:23:29.321Z,101103.41
2023-04-10T10:25:58.272Z,101098.13
2023-04-10T10:28:25.503Z,101097.25
2023-04-10T10:30:54.991Z,101099.97
2023-04-10T10:33:22.051Z,101087.56
2023-04-10T10:35:50.107Z,101079.56
2023-04-10T10:38:18.389Z,101077.84
2023-04-10T10:40:59.322Z,101069.88
2023-04-10T10:43:37.936Z,101067.22
2023-04-10T10:46:09.339Z,101059.28
2023-04-10T10:48:36.070Z,101048.59
2023-04-10T10:51:04.354Z,101040.63
2023-04-10T10:53:36.356Z,101037.06
2023-04-10T10:56:22.579Z,101026.44
2023-04-10T10:58:56.025Z,101028.22
2023-04-10T11:01:23.585Z,101017.56
2023-04-10T11:03:50.882Z,101022.91
2023-04-10T11:06:22.243Z,101017.59
2023-04-10T11:08:54.978Z,101008.72
2023-04-10T11:11:27.942Z,101015.84
2023-04-10T11:13:59.483Z,101013.16
2023-04-10T11:16:34.084Z,101001.63
2023-04-10T11:19:14.375Z,100995.38
2023-04-10T11:22:05.716Z,100983.81
2023-04-10T11:24:54.953Z,100982.06
2023-04-10T11:27:52.761Z,100969.56
2023-04-10T11:30:33.530Z,100968.69
2023-04-10T11:33:01.494Z,100962.44
2023-04-10T11:35:28.879Z,100963.31
2023-04-10T11:38:12.948Z,100965.09
2023-04-10T11:41:01.606Z,100946.38
2023-04-10T11:43:28.656Z,100934.84
2023-04-10T11:46:07.809Z,100942.81
2023-04-10T11:48:35.008Z,100933.94
2023-04-10T11:51:07.559Z,100924.13
2023-04-10T11:53:34.345Z,100922.31
2023-04-10T11:56:01.319Z,100910.72
2023-04-10T11:58:30.665Z,100908.88
2023-04-10T12:00:59.072Z,100908.91
2023-04-10T12:03:40.907Z,100896.38
2023-04-10T12:06:10.827Z,100900.81
2023-04-10T12:08:39.743Z,100883.88
2023-04-10T12:11:07.282Z,100872.25
2023-04-10T12:13:33.800Z,100882.00
2023-04-10T12:16:02.421Z,100873.91
2023-04-10T12:18:30.759Z,100866.75
2023-04-10T12:20:59.200Z,100871.16
2023-04-10T12:23:28.116Z,100868.41
2023-04-10T12:26:16.285Z,100865.66
2023-04-10T12:28:51.296Z,100856.72
2023-04-10T12:31:18.287Z,100851.25
2023-04-10T12:33:46.434Z,100851.16
2023-04-10T12:36:23.810Z,100835.06
2023-04-10T12:38:50.732Z,100848.34
2023-04-10T12:41:23.456Z,100845.56
2023-04-10T12:43:52.010Z,100840.97
2023-04-10T12:46:29.524Z,100833.66
2023-04-10T12:48:56.641Z,100844.25
2023-04-10T12:52:02.075Z,100836.00
2023-04-10T12:54:34.250Z,100816.28
2023-04-10T12:57:02.338Z,100822.38
2023-04-10T12:59:32.673Z,100818.72
2023-04-10T13:01:59.393Z,100801.69
2023-04-10T13:04:26.101Z,100811.50
2023-04-10T13:06:53.220Z,100803.34
2023-04-10T13:09:21.106Z,100801.47
2023-04-10T13:11:49.593Z,100803.16
2023-04-10T13:14:17.806Z,100797.69
2023-04-10T13:16:44.883Z,100798.41
2023-04-10T13:19:12.923Z,100796.47
2023-04-10T13:21:39.623Z,100786.47
2023-04-10T13:24:07.317Z,100787.19
2023-04-10T13:26:35.670Z,100770.03
2023-04-10T13:29:02.483Z,100764.44
2023-04-10T13:31:30.322Z,100761.63
2023-04-10T13:33:56.871Z,100767.75
2023-04-10T13:36:25.798Z,100753.28
2023-04-10T13:38:54.091Z,100749.56
2023-04-10T13:41:23.273Z,100747.66
2023-04-10T13:43:49.874Z,100742.16
2023-04-10T13:46:17.444Z,100742.13
2023-04-10T13:48:45.871Z,100734.78
2023-04-10T13:51:12.482Z,100731.06
2023-04-10T13:53:39.002Z,100733.53
2023-04-10T13:56:06.319Z,100733.38
2023-04-10T13:58:34.799Z,100724.28
2023-04-10T14:01:02.090Z,100729.59
2023-04-10T14:03:29.378Z,100722.34
2023-04-10T14:05:56.748Z,100720.38
2023-04-10T14:08:25.820Z,100722.03
2023-04-10T14:10:53.110Z,100711.19
2023-04-10T14:13:20.244Z,100695.06
2023-04-10T14:15:46.897Z,100701.53
2023-04-10T14:18:14.890Z,100707.81
2023-04-10T14:20:42.328Z,100697.94
2023-04-10T14:23:11.990Z,100695.19
2023-04-10T14:25:38.746Z,100695.91
2023-04-10T14:28:05.370Z,100686.81
2023-04-10T14:30:33.577Z,100674.94
2023-04-10T14:33:00.615Z,100668.38
2023-04-10T14:35:27.358Z,100658.38
2023-04-10T14:37:55.569Z,100653.78
2023-04-10T14:40:22.084Z,100647.63
2023-04-10T14:42:49.316Z,100641.47
2023-04-10T14:45:15.908Z,100638.81
2023-04-10T14:47:42.569Z,100621.84
2023-04-10T14:50:09.601Z,100612.94
2023-04-10T14:52:37.425Z,100615.59
2023-04-10T14:55:04.346Z,100612.84
2023-04-10T14:57:31.108Z,100602.94
2023-04-10T14:59:57.663Z,100598.41
2023-04-10T15:02:24.802Z,100594.81
2023-04-10T15:04:51.634Z,100586.81
2023-04-10T15:07:18.524Z,100584.31
2023-04-10T15:09:46.219Z,100583.63
2023-04-10T15:12:12.831Z,100580.09
2023-04-10T15:14:39.543Z,100572.97
2023-04-10T15:17:06.430Z,100577.47
2023-04-10T15:19:33.099Z,100565.91
2023-04-10T15:22:01.626Z,100554.31
2023-04-10T15:24:30.695Z,100558.84
2023-04-10T15:27:01.482Z,100557.03
2023-04-10T15:29:28.181Z,100553.25
2023-04-10T15:31:56.774Z,100543.28
2023-04-10T15:34:23.353Z,100537.91
2023-04-10T15:36:49.857Z,100536.22
2023-04-10T15:39:18.549Z,100524.72
2023-04-10T15:41:50.176Z,100526.59
2023-04-10T15:44:19.518Z,100512.53
2023-04-10T15:46:47.343Z,100509.16
2023-04-10T15:49:16.394Z,100494.16
2023-04-10T15:51:46.914Z,100484.59
2023-04-10T15:54:13.935Z,100482.94
2023-04-10T15:56:40.841Z,100484.69
2023-04-10T15:59:08.358Z,100469.53
2023-04-10T16:01:34.986Z,100460.63
2023-04-10T16:04:01.665Z,100466.91
2023-04-10T16:06:29.115Z,100422.09
2023-04-10T16:08:55.658Z,100446.97
2023-04-10T16:11:22.093Z,100433.06
2023-04-10T16:13:48.731Z,100424.22
2023-04-10T16:16:16.340Z,100427.97
2023-04-10T16:18:48.806Z,100431.94
2023-04-10T16:21:15.435Z,100424.06
2023-04-10T16:23:43.387Z,100429.91
2023-04-10T16:26:10.084Z,100418.63
2023-04-10T16:28:36.723Z,100412.81
2023-04-10T16:31:03.532Z,100406.59
2023-04-10T16:33:30.804Z,100396.75
2023-04-10T16:35:58.337Z,100391.38
2023-04-10T16:38:25.503Z,100388.09
2023-04-10T16:40:52.012Z,100386.56
2023-04-10T16:43:18.794Z,100377.34
2023-04-10T16:45:45.394Z,100382.44
2023-04-10T16:48:11.934Z,100373.84
2023-04-10T16:50:38.526Z,100383.84
2023-04-10T16:53:05.522Z,100377.56
2023-04-10T16:55:32.021Z,100365.09
2023-04-10T16:57:58.651Z,100361.38
2023-04-10T17:00:26.300Z,100363.84
2023-04-10T17:02:54.120Z,100353.72
2023-04-10T17:05:20.767Z,100354.38
2023-04-10T17:07:47.244Z,100350.53
2023-04-10T17:10:13.797Z,100345.63
2023-04-10T17:12:40.470Z,100341.63
2023-04-10T17:15:08.151Z,100340.19
2023-04-10T17:17:34.777Z,100333.34
2023-04-10T17:20:01.256Z,100326.50
2023-04-10T17:22:27.939Z,100322.34
2023-04-10T17:24:54.450Z,100328.78
2023-04-10T17:27:20.984Z,100324.56
2023-04-10T17:29:49.596Z,100314.06
2023-04-10T17:32:16.050Z,100313.31
2023-04-10T17:34:42.780Z,100311.69
2023-04-10T17:37:10.299Z,100310.88
2023-04-10T17:39:36.836Z,100293.16
2023-04-10T17:42:03.652Z,100301.25
2023-04-10T17:44:30.244Z,100290.69
2023-04-10T17:46:56.997Z,100286.38
2023-04-10T17:49:24.659Z,100278.56
2023-04-10T17:51:51.742Z,100284.97
2023-04-10T17:54:18.714Z,100284.28
2023-04-10T17:56:45.554Z,100288.00
2023-04-10T17:59:12.097Z,100282.81
2023-04-10T18:01:38.815Z,100292.75
2023-04-10T18:04:05.940Z,100294.69
2023-04-10T18:06:32.547Z,100289.50
2023-04-10T18:09:02.521Z,100285.13
2023-04-10T18:11:29.098Z,100278.16
2023-04-10T18:13:56.680Z,100280.91
2023-04-10T18:16:23.346Z,100273.88
2023-04-10T18:18:50.698Z,100273.03
2023-04-10T18:21:18.583Z,100266.84
2023-04-10T18:23:45.418Z,100268.66
2023-04-10T18:26:12.436Z,100261.63
2023-04-10T18:28:39.623Z,100257.22
2023-04-10T18:31:06.652Z,100262.59
2023-04-10T18:33:33.572Z,100255.53
2023-04-10T18:36:01.073Z,100257.34
2023-04-10T18:38:28.163Z,100252.09
2023-04-10T18:40:57.121Z,100239.69
2023-04-10T18:43:27.799Z,100244.16
2023-04-10T18:45:56.429Z,100236.25
2023-04-10T18:48:22.989Z,100226.53
2023-04-10T18:50:55.755Z,100225.66
2023-04-10T18:53:22.827Z,100227.50
2023-04-10T18:55:52.989Z,100216.91
2023-04-10T18:58:21.181Z,100217.84
2023-04-10T19:00:48.411Z,100215.28
2023-04-10T19:03:15.495Z,100211.75
2023-04-10T19:05:43.250Z,100212.66
2023-04-10T19:08:14.139Z,100205.59
2023-04-10T19:10:42.164Z,100194.06
2023-04-10T19:13:12.793Z,100187.88
2023-04-10T19:15:41.725Z,100185.22
2023-04-10T19:18:08.811Z,100180.75
2023-04-10T19:20:50.460Z,100186.13
2023-04-10T19:23:19.269Z,100182.59
2023-04-10T19:25:47.927Z,100177.31
2023-04-10T19:28:14.419Z,100179.97
2023-04-10T19:30:42.305Z,100174.69
2023-04-10T19:33:08.790Z,100165.81
2023-04-10T19:35:35.501Z,100159.59
2023-04-10T19:38:04.565Z,100153.41
2023-04-10T19:40:31.866Z,100152.53
2023-04-10T19:43:00.524Z,100153.44
2023-04-10T19:45:29.080Z,100142.81
2023-04-10T19:47:56.923Z,100152.56
2023-04-10T19:50:24.111Z,100149.03
2023-04-10T19:52:52.014Z,100138.34
2023-04-10T19:55:19.281Z,100142.78
2023-04-10T19:57:46.015Z,100132.16
2023-04-10T20:00:13.508Z,100141.03
2023-04-10T20:02:40.675Z,100143.72
2023-04-10T20:05:08.619Z,100135.75
2023-04-10T20:07:35.214Z,100137.50
2023-04-10T20:10:03.317Z,100138.41
2023-04-10T20:12:33.087Z,100133.13
2023-04-10T20:15:03.837Z,100139.31
2023-04-10T20:17:31.944Z,100134.00
2023-04-10T20:19:58.805Z,100132.22
2023-04-10T20:22:26.998Z,100129.56
2023-04-10T20:24:53.811Z,100125.16
2023-04-10T20:27:20.372Z,100108.31
2023-04-10T20:29:47.770Z,100098.59
2023-04-10T20:32:14.371Z,100095.03
2023-04-10T20:34:41.729Z,100092.44
2023-04-10T20:37:10.478Z,100085.31
2023-04-10T20:39:40.060Z,100081.78
2023-04-10T20:42:06.584Z,100066.75
2023-04-10T20:44:36.414Z,100057.03
2023-04-10T20:47:02.972Z,100055.28
2023-04-10T20:49:29.635Z,100055.25
2023-04-10T20:51:56.282Z,100056.19
2023-04-10T20:54:23.931Z,100045.56
2023-04-10T20:56:51.975Z,100048.25
2023-04-10T20:59:19.003Z,100042.94
2023-04-10T21:01:46.987Z,100042.06
2023-04-10T21:04:13.746Z,100035.03
2023-04-10T21:06:40.339Z,100027.97
2023-04-10T21:09:08.422Z,100022.69
2023-04-10T21:11:35.310Z,100015.63
2023-04-10T21:14:03.332Z,99999.69
2023-04-10T21:16:31.149Z,99998.81
2023-04-10T21:18:58.841Z,99983.75
2023-04-10T21:21:29.026Z,99977.56
2023-04-10T21:23:56.874Z,99977.56
2023-04-10T21:26:25.695Z,99975.81
2023-04-10T21:28:52.377Z,99969.63
2023-04-10T21:31:20.535Z,99968.75
2023-04-10T21:33:47.351Z,99970.50
2023-04-10T21:36:13.937Z,99966.09
2023-04-10T21:38:40.508Z,99965.19
2023-04-10T21:41:07.972Z,99959.88
2023-04-10T21:43:35.238Z,99961.63
2023-04-10T21:46:03.041Z,99949.25
2023-04-10T21:48:29.928Z,99961.63
2023-04-10T21:50:56.807Z,99955.44
2023-04-10T21:53:24.321Z,99945.69
2023-04-10T21:55:50.805Z,99948.34
2023-04-10T21:58:17.323Z,99944.81
2023-04-10T22:00:46.978Z,99938.59
2023-04-10T22:03:16.192Z,99943.03
2023-04-10T22:05:43.199Z,99936.81
2023-04-10T22:08:09.954Z,99949.22
2023-04-10T22:10:37.104Z,99946.53
2023-04-10T22:13:03.876Z,99944.78
2023-04-10T22:15:30.474Z,99941.25
2023-04-10T22:17:56.974Z,99928.84
2023-04-10T22:20:23.516Z,99943.00
2023-04-10T22:22:49.964Z,99927.94
2023-04-10T22:25:16.511Z,99942.16
2023-04-10T22:27:44.372Z,99954.59
2023-04-10T22:30:14.261Z,99951.06
2023-04-10T22:32:40.931Z,99966.19
2023-04-10T22:35:08.040Z,99953.81
2023-04-10T22:37:34.508Z,99943.22
2023-04-10T22:40:01.952Z,99953.84
2023-04-10T22:42:31.200Z,99945.88
2023-04-10T22:44:58.470Z,99944.13
2023-04-10T22:47:24.914Z,99942.34
2023-04-10T22:49:51.821Z,99933.50
2023-04-10T22:52:18.342Z,99931.72
2023-04-10T22:54:44.952Z,99921.09
2023-04-10T22:57:11.671Z,99915.78
2023-04-10T22:59:38.726Z,99923.75
2023-04-10T23:02:06.010Z,99916.69
2023-04-10T23:04:34.262Z,99924.66
2023-04-10T23:07:01.162Z,99912.25
2023-04-10T23:09:29.015Z,99901.66
2023-04-10T23:11:56.424Z,99895.47
2023-04-10T23:14:24.078Z,99896.41
2023-04-10T23:16:50.963Z,99891.09
2023-04-10T23:19:20.541Z,99892.03
2023-04-10T23:21:47.011Z,99897.34
2023-04-10T23:24:13.449Z,99899.16
2023-04-10T23:26:39.895Z,99903.59
2023-04-10T23:29:06.369Z,99903.63
2023-04-10T23:31:32.917Z,99900.13
2023-04-10T23:33:59.503Z,99899.25
2023-04-10T23:36:27.156Z,99891.34
2023-04-10T23:38:54.683Z,99880.72
2023-04-10T23:41:21.765Z,99880.75
2023-04-10T23:43:48.303Z,99879.84
2023-04-10T23:46:15.013Z,99891.38
2023-04-10T23:48:41.496Z,99894.91
2023-04-10T23:51:09.079Z,99898.50
2023-04-10T23:53:35.910Z,99902.06
2023-04-10T23:56:02.491Z,99904.72
2023-04-10T23:58:30.828Z,99905.63
